Time;durP1;ratioP1;P1;durP2;ratioP2;P2;SDS_P1;SDS_P2;PMS_P1;PMS_P2;Temp;Humidity;BMP_temperature;BMP_pressure;BME280_temperature;BME280_humidity;BME280_pressure;Samples;Min_cycle;Max_cycle;Signal;HPM_P1;HPM_P2
2023/05/02 00:01:41;;;;;;;5.97;5.25;;;;;;;;;;5062850;28;20330;-52
2023/05/02 00:04:08;;;;;;;6.05;5.30;;;;;;;;;;5063167;28;20231;-52
2023/05/02 00:06:34;;;;;;;6.18;5.32;;;;;;;;;;5059538;28;20235;-52
2023/05/02 00:09:03;;;;;;;5.88;4.93;;;;;;;;;;5061749;28;20296;-53
2023/05/02 00:11:30;;;;;;;6.00;5.30;;;;;;;;;;5064386;28;20235;-51
2023/05/02 00:13:56;;;;;;;6.45;4.78;;;;;;;;;;5062100;28;20314;-51
2023/05/02 00:16:23;;;;;;;8.05;5.63;;;;;;;;;;5055704;28;20247;-52
2023/05/02 00:18:50;;;;;;;6.20;5.60;;;;;;;;;;5062230;28;20235;-52
2023/05/02 00:21:16;;;;;;;5.90;5.40;;;;;;;;;;5060401;28;20231;-52
2023/05/02 00:23:43;;;;;;;7.53;5.68;;;;;;;;;;5058142;28;20297;-52
2023/05/02 00:26:11;;;;;;;6.78;5.63;;;;;;;;;;5059008;28;20239;-51
2023/05/02 00:28:39;;;;;;;5.60;5.07;;;;;;;;;;5062152;28;20256;-51
2023/05/02 00:31:05;;;;;;;8.05;5.78;;;;;;;;;;5061785;28;20230;-52
2023/05/02 00:33:32;;;;;;;11.48;5.38;;;;;;;;;;5059993;28;20238;-53
2023/05/02 00:35:59;;;;;;;6.88;5.18;;;;;;;;;;5060043;28;20852;-52
2023/05/02 00:38:25;;;;;;;6.93;5.22;;;;;;;;;;5061964;28;20738;-52
2023/05/02 00:40:52;;;;;;;7.82;5.30;;;;;;;;;;5061811;28;20235;-52
2023/05/02 00:43:20;;;;;;;5.68;5.07;;;;;;;;;;5064245;28;20300;-51
2023/05/02 00:45:47;;;;;;;5.53;5.00;;;;;;;;;;5061943;28;20288;-52
2023/05/02 00:48:14;;;;;;;5.63;4.65;;;;;;;;;;5061856;28;20227;-52
2023/05/02 00:50:41;;;;;;;6.90;5.57;;;;;;;;;;5062353;28;20239;-52
2023/05/02 00:53:08;;;;;;;6.93;5.18;;;;;;;;;;5062214;28;20642;-52
2023/05/02 00:55:34;;;;;;;8.43;5.38;;;;;;;;;;5064474;28;20254;-51
2023/05/02 00:58:02;;;;;;;7.10;5.00;;;;;;;;;;5063946;28;20398;-52
2023/05/02 01:00:32;;;;;;;5.57;5.07;;;;;;;;;;5062616;28;20239;-51
2023/05/02 01:03:05;;;;;;;6.68;5.75;;;;;;;;;;5067419;28;20223;-52
2023/05/02 01:05:36;;;;;;;7.72;5.75;;;;;;;;;;5062035;28;20243;-55
2023/05/02 01:08:10;;;;;;;5.22;4.72;;;;;;;;;;5064991;28;20311;-51
2023/05/02 01:10:43;;;;;;;6.03;4.80;;;;;;;;;;5064533;28;20722;-52
2023/05/02 01:13:12;;;;;;;5.40;4.90;;;;;;;;;;5062852;28;20223;-51
2023/05/02 01:15:41;;;;;;;5.90;5.30;;;;;;;;;;5064925;28;20238;-52
2023/05/02 01:18:09;;;;;;;6.57;4.93;;;;;;;;;;5064987;28;20292;-53
2023/05/02 01:20:37;;;;;;;4.90;4.50;;;;;;;;;;5063904;28;20235;-52
2023/05/02 01:23:07;;;;;;;8.88;5.50;;;;;;;;;;5063515;28;20272;-51
2023/05/02 01:25:40;;;;;;;10.10;5.43;;;;;;;;;;5064555;28;20280;-51
2023/05/02 01:28:15;;;;;;;7.05;5.68;;;;;;;;;;5066775;28;20699;-53
2023/05/02 01:30:44;;;;;;;7.00;5.70;;;;;;;;;;5064902;28;20231;-52
2023/05/02 01:33:11;;;;;;;6.32;4.82;;;;;;;;;;5065463;28;20223;-52
2023/05/02 01:35:38;;;;;;;5.97;5.47;;;;;;;;;;5064815;28;20259;-52
2023/05/02 01:38:06;;;;;;;6.18;5.57;;;;;;;;;;5065768;28;20269;-52
2023/05/02 01:40:33;;;;;;;5.57;5.07;;;;;;;;;;5064288;28;20228;-52
2023/05/02 01:43:03;;;;;;;5.57;5.07;;;;;;;;;;5065615;28;20654;-51
2023/05/02 01:45:30;;;;;;;9.32;5.72;;;;;;;;;;5066480;28;20235;-52
2023/05/02 01:47:58;;;;;;;5.93;5.35;;;;;;;;;;5061825;28;20227;-51
2023/05/02 01:50:25;;;;;;;5.95;4.68;;;;;;;;;;5063453;28;20242;-52
2023/05/02 01:52:53;;;;;;;5.72;5.22;;;;;;;;;;5064168;28;22861;-51
2023/05/02 01:55:20;;;;;;;5.97;5.38;;;;;;;;;;5066670;28;20320;-52
2023/05/02 01:57:49;;;;;;;9.30;6.03;;;;;;;;;;5061572;28;20237;-52
2023/05/02 02:00:16;;;;;;;5.28;4.78;;;;;;;;;;5063258;28;20227;-53
2023/05/02 02:02:44;;;;;;;5.07;4.68;;;;;;;;;;5063637;28;20789;-51
2023/05/02 02:05:12;;;;;;;5.88;5.28;;;;;;;;;;5063753;28;20238;-52
2023/05/02 02:07:39;;;;;;;5.47;4.80;;;;;;;;;;5062290;28;20306;-52
2023/05/02 02:10:06;;;;;;;6.40;5.80;;;;;;;;;;5064279;28;20667;-51
2023/05/02 02:12:36;;;;;;;5.55;4.90;;;;;;;;;;5064049;28;20231;-53
2023/05/02 02:15:06;;;;;;;6.60;5.20;;;;;;;;;;5063932;28;20250;-54
2023/05/02 02:17:38;;;;;;;5.18;4.60;;;;;;;;;;5064840;28;20289;-53
2023/05/02 02:20:07;;;;;;;7.13;4.88;;;;;;;;;;5063408;28;20235;-51
2023/05/02 02:22:37;;;;;;;5.78;4.70;;;;;;;;;;5062865;28;20715;-54
2023/05/02 02:25:05;;;;;;;5.60;4.47;;;;;;;;;;5064912;28;20227;-52
2023/05/02 02:27:32;;;;;;;7.60;5.45;;;;;;;;;;5063706;28;21012;-52
2023/05/02 02:29:59;;;;;;;5.55;4.22;;;;;;;;;;5063105;28;20608;-52
2023/05/02 02:32:25;;;;;;;5.25;4.72;;;;;;;;;;5061570;28;20659;-52
2023/05/02 02:34:52;;;;;;;5.10;4.70;;;;;;;;;;5058924;28;20239;-51
2023/05/02 02:37:19;;;;;;;7.28;5.00;;;;;;;;;;5064503;28;20250;-53
2023/05/02 02:39:51;;;;;;;6.05;4.70;;;;;;;;;;5063784;28;20243;-52
2023/05/02 02:42:22;;;;;;;5.10;4.68;;;;;;;;;;5063390;28;20233;-52
2023/05/02 02:44:54;;;;;;;7.30;4.32;;;;;;;;;;5061606;28;20235;-53
2023/05/02 02:47:23;;;;;;;4.90;4.43;;;;;;;;;;5054992;28;20230;-54
2023/05/02 02:49:54;;;;;;;8.52;4.72;;;;;;;;;;5059090;28;20231;-53
2023/05/02 02:52:24;;;;;;;6.38;4.25;;;;;;;;;;5063533;28;20227;-52
2023/05/02 02:54:57;;;;;;;4.75;4.28;;;;;;;;;;5049237;28;20235;-51
2023/05/02 02:57:26;;;;;;;4.60;3.92;;;;;;;;;;5063652;28;20284;-52
2023/05/02 02:59:58;;;;;;;5.90;5.18;;;;;;;;;;5061606;28;20231;-52
2023/05/02 03:02:28;;;;;;;4.13;3.78;;;;;;;;;;5065065;28;20246;-53
2023/05/02 03:04:55;;;;;;;5.22;4.30;;;;;;;;;;5062909;28;20593;-52
2023/05/02 03:07:21;;;;;;;3.92;3.55;;;;;;;;;;5063192;28;20226;-52
2023/05/02 03:09:48;;;;;;;4.45;4.05;;;;;;;;;;5062376;28;20288;-52
2023/05/02 03:12:16;;;;;;;3.83;3.53;;;;;;;;;;5063272;28;20253;-52
2023/05/02 03:14:43;;;;;;;4.40;3.78;;;;;;;;;;5062881;28;20239;-52
2023/05/02 03:17:09;;;;;;;5.85;4.43;;;;;;;;;;5062043;28;20234;-52
2023/05/02 03:19:36;;;;;;;4.30;3.92;;;;;;;;;;5065581;28;20234;-52
2023/05/02 03:22:03;;;;;;;5.82;3.78;;;;;;;;;;5064743;28;20227;-53
2023/05/02 03:24:30;;;;;;;7.70;4.72;;;;;;;;;;5063057;28;20290;-52
2023/05/02 03:26:57;;;;;;;5.65;4.10;;;;;;;;;;5064989;28;20250;-52
2023/05/02 03:29:27;;;;;;;4.20;3.80;;;;;;;;;;5052318;28;20241;-51
2023/05/02 03:31:54;;;;;;;6.05;4.07;;;;;;;;;;5059753;28;20309;-52
2023/05/02 03:34:21;;;;;;;6.80;3.92;;;;;;;;;;5061647;28;20720;-52
2023/05/02 03:36:48;;;;;;;5.32;4.78;;;;;;;;;;5053770;28;20289;-52
2023/05/02 03:39:15;;;;;;;6.15;4.25;;;;;;;;;;5060617;28;20231;-52
2023/05/02 03:41:42;;;;;;;6.40;4.20;;;;;;;;;;5062448;28;20279;-51
2023/05/02 03:44:09;;;;;;;4.75;4.25;;;;;;;;;;5060758;28;20296;-51
2023/05/02 03:46:37;;;;;;;6.10;4.85;;;;;;;;;;5061530;28;20231;-51
2023/05/02 03:49:04;;;;;;;5.05;4.63;;;;;;;;;;5062139;28;20699;-52
2023/05/02 03:51:32;;;;;;;5.93;4.22;;;;;;;;;;5057193;28;20231;-52
2023/05/02 03:54:00;;;;;;;4.75;4.25;;;;;;;;;;5062001;28;20238;-51
2023/05/02 03:56:26;;;;;;;4.38;3.97;;;;;;;;;;5063354;28;20237;-52
2023/05/02 03:58:53;;;;;;;5.40;3.95;;;;;;;;;;5061479;28;20235;-52
2023/05/02 04:01:20;;;;;;;6.63;4.13;;;;;;;;;;5059472;28;20258;-51
2023/05/02 04:03:48;;;;;;;4.03;3.55;;;;;;;;;;5061860;28;20288;-53
2023/05/02 04:06:15;;;;;;;5.78;4.13;;;;;;;;;;5063717;28;20235;-52
2023/05/02 04:08:42;;;;;;;5.85;3.65;;;;;;;;;;5061322;28;20234;-53
2023/05/02 04:11:08;;;;;;;5.05;3.88;;;;;;;;;;5062583;28;20231;-51
2023/05/02 04:13:35;;;;;;;9.15;4.10;;;;;;;;;;5061880;28;20284;-51
2023/05/02 04:16:01;;;;;;;4.18;3.78;;;;;;;;;;5062660;28;20238;-52
2023/05/02 04:18:28;;;;;;;6.50;3.95;;;;;;;;;;5063606;28;20238;-52
2023/05/02 04:20:56;;;;;;;5.55;3.40;;;;;;;;;;5063498;28;20326;-52
2023/05/02 04:23:22;;;;;;;4.65;3.47;;;;;;;;;;5061254;28;20251;-52
2023/05/02 04:25:53;;;;;;;6.00;3.47;;;;;;;;;;5061008;28;20239;-51
2023/05/02 04:28:20;;;;;;;6.25;3.72;;;;;;;;;;5060247;28;20223;-51
2023/05/02 04:30:47;;;;;;;4.05;3.42;;;;;;;;;;5066456;28;20312;-53
2023/05/02 04:33:13;;;;;;;6.10;3.95;;;;;;;;;;5065387;28;20227;-51
2023/05/02 04:35:40;;;;;;;3.65;2.83;;;;;;;;;;5066219;28;20243;-52
2023/05/02 04:38:08;;;;;;;3.15;2.90;;;;;;;;;;5066788;28;20321;-51
2023/05/02 04:40:35;;;;;;;3.87;3.53;;;;;;;;;;5064060;28;20277;-55
2023/05/02 04:43:02;;;;;;;4.65;3.20;;;;;;;;;;5059321;28;20272;-52
2023/05/02 04:45:29;;;;;;;4.07;3.22;;;;;;;;;;5064302;28;20929;-52
2023/05/02 04:47:55;;;;;;;5.93;3.45;;;;;;;;;;5066832;28;20596;-52
2023/05/02 04:50:22;;;;;;;6.28;4.10;;;;;;;;;;5065684;28;20268;-53
2023/05/02 04:52:49;;;;;;;4.75;3.40;;;;;;;;;;5067240;28;20242;-52
2023/05/02 04:55:17;;;;;;;6.13;3.80;;;;;;;;;;5065247;28;20235;-52
2023/05/02 04:57:43;;;;;;;6.50;3.97;;;;;;;;;;5064779;28;20241;-52
2023/05/02 05:00:10;;;;;;;4.43;2.92;;;;;;;;;;5067100;28;20227;-51
2023/05/02 05:02:37;;;;;;;3.93;3.20;;;;;;;;;;5063870;28;20318;-51
2023/05/02 05:05:04;;;;;;;4.20;3.78;;;;;;;;;;5065229;28;20246;-52
2023/05/02 05:07:31;;;;;;;3.88;3.58;;;;;;;;;;5060704;28;20235;-51
2023/05/02 05:09:58;;;;;;;3.50;3.15;;;;;;;;;;5063790;28;20227;-51
2023/05/02 05:12:26;;;;;;;4.82;3.92;;;;;;;;;;5064437;28;20251;-52
2023/05/02 05:14:52;;;;;;;7.75;3.25;;;;;;;;;;5065259;28;20667;-53
2023/05/02 05:17:19;;;;;;;4.75;3.97;;;;;;;;;;5061752;28;20277;-52
2023/05/02 05:19:45;;;;;;;9.50;3.80;;;;;;;;;;5063017;28;20294;-51
2023/05/02 05:22:12;;;;;;;4.32;3.08;;;;;;;;;;5066946;28;20322;-52
2023/05/02 05:24:39;;;;;;;5.07;3.78;;;;;;;;;;5061369;28;20259;-53
2023/05/02 05:27:05;;;;;;;4.93;3.03;;;;;;;;;;5059713;28;20223;-51
2023/05/02 05:29:33;;;;;;;7.55;3.63;;;;;;;;;;5064336;28;20306;-52
2023/05/02 05:32:00;;;;;;;4.35;3.95;;;;;;;;;;5064418;28;20234;-52
2023/05/02 05:34:27;;;;;;;5.80;4.10;;;;;;;;;;5063152;28;20642;-51
2023/05/02 05:36:53;;;;;;;6.50;3.33;;;;;;;;;;5062505;28;20230;-52
2023/05/02 05:39:20;;;;;;;3.75;3.22;;;;;;;;;;5065089;28;20311;-52
2023/05/02 05:41:46;;;;;;;4.75;4.15;;;;;;;;;;5061407;28;20346;-51
2023/05/02 05:44:14;;;;;;;5.45;3.92;;;;;;;;;;5063036;28;20317;-52
2023/05/02 05:46:42;;;;;;;5.68;4.18;;;;;;;;;;5064484;28;20235;-52
2023/05/02 05:49:08;;;;;;;4.75;3.72;;;;;;;;;;5064495;28;20223;-51
2023/05/02 05:51:35;;;;;;;6.50;3.97;;;;;;;;;;5065379;28;20233;-51
2023/05/02 05:54:02;;;;;;;6.27;4.20;;;;;;;;;;5057997;28;20234;-52
2023/05/02 05:56:28;;;;;;;4.97;4.47;;;;;;;;;;5065080;28;20231;-53
2023/05/02 05:58:56;;;;;;;5.25;4.47;;;;;;;;;;5062266;28;20719;-51
2023/05/02 06:01:23;;;;;;;6.28;4.53;;;;;;;;;;5063692;28;20227;-55
2023/05/02 06:03:51;;;;;;;5.65;4.72;;;;;;;;;;5063392;28;20266;-52
2023/05/02 06:06:18;;;;;;;4.88;4.38;;;;;;;;;;5065191;28;20234;-51
2023/05/02 06:08:44;;;;;;;5.72;4.43;;;;;;;;;;5064670;28;20235;-52
2023/05/02 06:11:10;;;;;;;5.80;3.88;;;;;;;;;;5062662;28;20234;-55
2023/05/02 06:13:38;;;;;;;6.07;5.53;;;;;;;;;;5062821;28;20235;-52
2023/05/02 06:16:05;;;;;;;6.80;4.50;;;;;;;;;;5059624;28;20227;-51
2023/05/02 06:18:31;;;;;;;5.15;4.65;;;;;;;;;;5061908;28;20230;-53
2023/05/02 06:21:03;;;;;;;5.70;5.13;;;;;;;;;;5062039;28;20307;-51
2023/05/02 06:23:29;;;;;;;8.85;6.03;;;;;;;;;;5059906;28;20769;-53
2023/05/02 06:25:58;;;;;;;6.70;6.03;;;;;;;;;;5064358;28;20329;-50
2023/05/02 06:28:25;;;;;;;7.57;5.88;;;;;;;;;;5057607;28;20222;-51
2023/05/02 06:30:57;;;;;;;9.80;6.70;;;;;;;;;;5058538;28;20235;-52
2023/05/02 06:33:23;;;;;;;11.85;7.63;;;;;;;;;;5059927;28;20800;-51
2023/05/02 06:35:51;;;;;;;8.60;7.55;;;;;;;;;;5055544;28;20231;-52
2023/05/02 06:38:19;;;;;;;10.40;8.05;;;;;;;;;;5055512;28;20242;-52
2023/05/02 06:40:45;;;;;;;8.93;7.45;;;;;;;;;;5049778;28;20746;-51
2023/05/02 06:43:12;;;;;;;11.57;8.48;;;;;;;;;;5066867;28;20245;-51
2023/05/02 06:45:39;;;;;;;8.68;7.70;;;;;;;;;;5064148;28;20429;-51
2023/05/02 06:48:06;;;;;;;10.15;8.18;;;;;;;;;;5057779;28;20242;-52
2023/05/02 06:50:33;;;;;;;10.68;8.45;;;;;;;;;;5059444;28;20239;-51
2023/05/02 06:53:00;;;;;;;10.73;7.70;;;;;;;;;;5059308;28;20714;-50
2023/05/02 06:55:28;;;;;;;8.70;6.90;;;;;;;;;;5063106;28;20327;-51
2023/05/02 06:57:55;;;;;;;8.05;6.70;;;;;;;;;;5062124;28;20280;-52
2023/05/02 07:00:21;;;;;;;8.32;6.68;;;;;;;;;;5063997;28;20322;-50
2023/05/02 07:02:48;;;;;;;8.88;7.22;;;;;;;;;;5062463;28;20774;-51
2023/05/02 07:05:15;;;;;;;5.72;5.15;;;;;;;;;;5062375;28;20254;-50
2023/05/02 07:07:42;;;;;;;8.27;6.32;;;;;;;;;;5060142;28;20239;-51
2023/05/02 07:10:09;;;;;;;8.20;6.57;;;;;;;;;;5057655;28;20231;-53
2023/05/02 07:12:38;;;;;;;5.85;5.20;;;;;;;;;;5049429;28;20246;-53
2023/05/02 07:15:05;;;;;;;9.00;6.82;;;;;;;;;;5059639;28;20304;-52
2023/05/02 07:17:32;;;;;;;8.65;6.07;;;;;;;;;;5055693;28;20235;-52
2023/05/02 07:19:58;;;;;;;8.88;6.57;;;;;;;;;;5059482;28;20235;-51
2023/05/02 07:22:25;;;;;;;7.15;5.28;;;;;;;;;;5063127;28;20231;-52
2023/05/02 07:24:57;;;;;;;8.35;6.70;;;;;;;;;;5059722;28;20236;-51
2023/05/02 07:27:23;;;;;;;7.03;5.75;;;;;;;;;;5062370;28;20219;-52
2023/05/02 07:29:51;;;;;;;6.70;5.93;;;;;;;;;;5062555;28;20233;-53
2023/05/02 07:32:20;;;;;;;6.78;6.10;;;;;;;;;;5061601;28;20642;-52
2023/05/02 07:34:47;;;;;;;7.85;5.95;;;;;;;;;;5059943;28;20911;-50
2023/05/02 07:37:13;;;;;;;7.95;5.80;;;;;;;;;;5060303;28;20234;-53
2023/05/02 07:39:39;;;;;;;5.28;4.78;;;;;;;;;;5062432;28;20241;-51
2023/05/02 07:42:06;;;;;;;6.82;4.88;;;;;;;;;;5061188;28;20774;-52
2023/05/02 07:44:33;;;;;;;5.95;4.93;;;;;;;;;;5063737;28;20257;-52
2023/05/02 07:47:02;;;;;;;6.70;4.43;;;;;;;;;;5064075;28;20344;-52
2023/05/02 07:49:28;;;;;;;5.80;4.68;;;;;;;;;;5063807;28;20238;-52
2023/05/02 07:51:55;;;;;;;5.90;4.63;;;;;;;;;;5059268;28;20370;-51
2023/05/02 07:54:21;;;;;;;4.93;4.43;;;;;;;;;;5061750;28;20250;-50
2023/05/02 07:56:48;;;;;;;6.40;5.18;;;;;;;;;;5063565;28;20235;-51
2023/05/02 07:59:15;;;;;;;5.75;5.15;;;;;;;;;;5060784;28;20231;-52
2023/05/02 08:01:41;;;;;;;8.45;6.60;;;;;;;;;;5063791;28;20243;-50
2023/05/02 08:04:10;;;;;;;7.28;5.10;;;;;;;;;;5064260;28;20647;-53
2023/05/02 08:06:36;;;;;;;6.65;5.97;;;;;;;;;;5068545;28;20261;-51
2023/05/02 08:09:03;;;;;;;5.78;4.88;;;;;;;;;;5066857;28;20766;-52
2023/05/02 08:11:29;;;;;;;6.10;5.03;;;;;;;;;;5059938;28;20316;-50
2023/05/02 08:13:56;;;;;;;7.00;4.95;;;;;;;;;;5062284;28;20609;-51
2023/05/02 08:16:22;;;;;;;5.85;4.85;;;;;;;;;;5067917;28;20227;-51
2023/05/02 08:18:48;;;;;;;5.45;4.70;;;;;;;;;;5067593;28;20226;-50
2023/05/02 08:21:16;;;;;;;3.70;3.40;;;;;;;;;;5066360;28;20318;-53
2023/05/02 08:23:44;;;;;;;5.72;3.70;;;;;;;;;;5066000;28;20751;-51
2023/05/02 08:26:10;;;;;;;5.10;3.10;;;;;;;;;;5068040;28;20238;-52
2023/05/02 08:28:36;;;;;;;3.08;2.78;;;;;;;;;;5066545;28;20745;-52
2023/05/02 08:31:03;;;;;;;3.08;2.88;;;;;;;;;;5066461;28;20226;-51
2023/05/02 08:33:29;;;;;;;3.65;2.97;;;;;;;;;;5067312;28;20288;-52
2023/05/02 08:35:56;;;;;;;4.70;2.63;;;;;;;;;;5071153;28;21102;-53
2023/05/02 08:38:23;;;;;;;5.22;3.40;;;;;;;;;;5068530;28;20233;-53
2023/05/02 08:40:50;;;;;;;7.80;3.35;;;;;;;;;;5067377;28;20845;-51
2023/05/02 08:43:16;;;;;;;4.55;3.03;;;;;;;;;;5067133;28;20247;-53
2023/05/02 08:45:44;;;;;;;4.45;2.67;;;;;;;;;;5067217;28;20242;-56
2023/05/02 08:48:11;;;;;;;3.92;3.40;;;;;;;;;;5064735;28;20312;-51
2023/05/02 08:50:38;;;;;;;10.23;4.20;;;;;;;;;;5068568;28;20719;-51
2023/05/02 08:53:04;;;;;;;4.45;3.67;;;;;;;;;;5064579;28;20227;-52
2023/05/02 08:55:32;;;;;;;3.28;2.78;;;;;;;;;;5066496;28;20314;-52
2023/05/02 08:58:00;;;;;;;3.45;2.80;;;;;;;;;;5066467;28;20250;-53
2023/05/02 09:00:27;;;;;;;3.75;2.60;;;;;;;;;;5064763;28;20235;-53
2023/05/02 09:03:00;;;;;;;2.70;2.47;;;;;;;;;;5067147;28;20239;-52
2023/05/02 09:05:26;;;;;;;3.70;3.40;;;;;;;;;;5061772;28;20259;-52
2023/05/02 09:07:53;;;;;;;3.58;3.22;;;;;;;;;;5064946;28;20239;-52
2023/05/02 09:10:21;;;;;;;3.80;3.28;;;;;;;;;;5069062;28;20967;-51
2023/05/02 09:12:49;;;;;;;3.38;2.83;;;;;;;;;;5065995;28;20243;-52
2023/05/02 09:15:16;;;;;;;3.67;3.33;;;;;;;;;;5065554;28;20310;-51
2023/05/02 09:17:43;;;;;;;6.75;3.63;;;;;;;;;;5066395;28;20243;-51
2023/05/02 09:20:11;;;;;;;6.82;3.97;;;;;;;;;;5063072;28;20259;-52
2023/05/02 09:22:38;;;;;;;5.68;3.10;;;;;;;;;;5065950;28;20235;-51
2023/05/02 09:25:05;;;;;;;3.20;2.90;;;;;;;;;;5064213;28;20237;-51
2023/05/02 09:27:48;;;;;;;2.47;2.28;;;;;;;;;;5065824;28;20831;-50
2023/05/02 09:30:26;;;;;;;3.83;3.15;;;;;;;;;;5059462;28;20331;-52
2023/05/02 09:32:54;;;;;;;3.65;2.90;;;;;;;;;;5064951;28;20243;-51
2023/05/02 09:35:23;;;;;;;3.70;3.35;;;;;;;;;;5063019;28;20231;-52
2023/05/02 09:37:53;;;;;;;2.70;2.50;;;;;;;;;;5068962;28;20257;-51
2023/05/02 09:40:19;;;;;;;3.72;3.42;;;;;;;;;;5062499;28;20231;-53
2023/05/02 09:42:46;;;;;;;3.75;3.45;;;;;;;;;;5065532;28;20326;-51
2023/05/02 09:45:22;;;;;;;3.60;2.90;;;;;;;;;;5064933;28;20239;-51
2023/05/02 09:47:50;;;;;;;4.90;3.33;;;;;;;;;;5064780;28;20501;-51
2023/05/02 09:50:33;;;;;;;3.22;2.72;;;;;;;;;;5063907;28;20500;-50
2023/05/02 09:53:03;;;;;;;4.53;3.28;;;;;;;;;;5065638;28;20246;-52
2023/05/02 09:55:30;;;;;;;2.60;1.95;;;;;;;;;;5065007;28;20234;-52
2023/05/02 09:57:57;;;;;;;2.70;2.38;;;;;;;;;;5064579;28;20289;-52
2023/05/02 10:00:37;;;;;;;3.83;3.08;;;;;;;;;;5062524;28;20239;-50
2023/05/02 10:03:06;;;;;;;3.70;2.95;;;;;;;;;;5064889;28;20310;-51
2023/05/02 10:05:33;;;;;;;3.70;3.08;;;;;;;;;;5064956;28;20227;-51
2023/05/02 10:08:00;;;;;;;3.47;2.90;;;;;;;;;;5062529;28;20231;-52
2023/05/02 10:10:26;;;;;;;5.97;3.22;;;;;;;;;;5064156;28;20320;-51
2023/05/02 10:12:53;;;;;;;3.80;3.25;;;;;;;;;;5065415;28;20330;-51
2023/05/02 10:15:22;;;;;;;4.97;3.75;;;;;;;;;;5061743;28;20318;-50
2023/05/02 10:17:49;;;;;;;3.50;3.20;;;;;;;;;;5063135;28;20253;-50
2023/05/02 10:20:22;;;;;;;3.47;2.90;;;;;;;;;;5065283;28;20231;-52
2023/05/02 10:22:49;;;;;;;2.70;2.50;;;;;;;;;;5063915;28;20756;-52
2023/05/02 10:25:16;;;;;;;4.28;3.15;;;;;;;;;;5060078;28;20235;-52
2023/05/02 10:27:42;;;;;;;6.40;2.78;;;;;;;;;;5063342;28;20235;-53
2023/05/02 10:30:09;;;;;;;2.33;2.13;;;;;;;;;;5063182;28;20227;-54
2023/05/02 10:32:36;;;;;;;4.60;2.75;;;;;;;;;;5066369;28;20263;-53
2023/05/02 10:35:03;;;;;;;3.10;2.70;;;;;;;;;;5063900;28;20227;-52
2023/05/02 10:37:32;;;;;;;3.65;2.58;;;;;;;;;;5065879;28;20711;-53
2023/05/02 10:39:59;;;;;;;2.97;2.70;;;;;;;;;;5063085;28;20239;-52
2023/05/02 10:42:26;;;;;;;2.42;2.28;;;;;;;;;;5062560;28;20300;-51
2023/05/02 10:44:52;;;;;;;2.83;2.63;;;;;;;;;;5057442;28;20235;-53
2023/05/02 10:47:20;;;;;;;4.93;3.25;;;;;;;;;;5064159;28;20223;-52
2023/05/02 10:49:49;;;;;;;4.15;2.63;;;;;;;;;;5065042;28;20231;-52
2023/05/02 10:52:25;;;;;;;5.40;3.63;;;;;;;;;;5066025;28;20293;-52
2023/05/02 10:55:13;;;;;;;5.00;3.47;;;;;;;;;;5063169;28;20722;-54
2023/05/02 10:57:54;;;;;;;5.38;4.15;;;;;;;;;;5064115;28;20246;-52
2023/05/02 11:00:21;;;;;;;4.38;3.95;;;;;;;;;;5063756;28;20314;-52
2023/05/02 11:02:48;;;;;;;8.07;4.40;;;;;;;;;;5064892;28;20239;-52
2023/05/02 11:05:15;;;;;;;9.55;5.32;;;;;;;;;;5062727;28;20238;-52
2023/05/02 11:07:41;;;;;;;7.18;4.72;;;;;;;;;;5063564;28;20828;-53
2023/05/02 11:10:26;;;;;;;5.93;4.43;;;;;;;;;;5067149;28;20310;-51
2023/05/02 11:12:53;;;;;;;7.82;5.15;;;;;;;;;;5063643;28;20223;-52
2023/05/02 11:15:34;;;;;;;7.95;5.28;;;;;;;;;;5063662;28;20235;-52
2023/05/02 11:18:01;;;;;;;6.15;4.85;;;;;;;;;;5065843;28;20286;-52
2023/05/02 11:20:27;;;;;;;9.18;5.25;;;;;;;;;;5063395;28;20234;-54
2023/05/02 11:22:55;;;;;;;7.63;5.70;;;;;;;;;;5067247;28;20263;-52
2023/05/02 11:25:32;;;;;;;8.68;4.03;;;;;;;;;;5064344;28;20231;-52
2023/05/02 11:27:59;;;;;;;7.38;3.78;;;;;;;;;;5063588;28;20238;-50
2023/05/02 11:30:43;;;;;;;8.10;3.97;;;;;;;;;;5064413;28;20292;-50
2023/05/02 11:33:18;;;;;;;4.43;3.47;;;;;;;;;;5055706;28;20388;-51
2023/05/02 11:35:46;;;;;;;6.38;4.20;;;;;;;;;;5063869;28;20245;-52
2023/05/02 11:38:13;;;;;;;7.20;3.55;;;;;;;;;;5063300;28;20235;-52
2023/05/02 11:40:41;;;;;;;4.82;3.35;;;;;;;;;;5062947;28;20231;-51
2023/05/02 11:43:14;;;;;;;5.03;3.22;;;;;;;;;;5065344;28;20231;-53
2023/05/02 11:45:42;;;;;;;4.75;2.85;;;;;;;;;;5061313;28;20258;-52
2023/05/02 11:48:10;;;;;;;5.93;3.85;;;;;;;;;;5058951;28;20227;-52
2023/05/02 11:50:42;;;;;;;7.15;3.15;;;;;;;;;;5059274;28;20626;-52
2023/05/02 11:53:10;;;;;;;5.57;2.83;;;;;;;;;;5058372;28;20238;-51
2023/05/02 11:55:37;;;;;;;3.70;2.55;;;;;;;;;;5063872;28;20257;-51
2023/05/02 11:58:05;;;;;;;3.90;2.50;;;;;;;;;;5062872;28;20306;-52
2023/05/02 12:00:31;;;;;;;5.72;3.42;;;;;;;;;;5062557;28;20728;-51
2023/05/02 12:02:58;;;;;;;4.95;2.95;;;;;;;;;;5063891;28;20239;-52
2023/05/02 12:05:28;;;;;;;11.90;3.95;;;;;;;;;;5061262;28;20236;-52
2023/05/02 12:07:54;;;;;;;6.53;2.90;;;;;;;;;;5060316;28;20230;-51
2023/05/02 12:10:20;;;;;;;5.97;3.13;;;;;;;;;;5060885;28;20233;-53
2023/05/02 12:12:47;;;;;;;8.07;2.60;;;;;;;;;;5069317;28;20314;-52
2023/05/02 12:15:15;;;;;;;7.88;3.20;;;;;;;;;;5061122;28;20263;-52
2023/05/02 12:17:44;;;;;;;6.40;3.40;;;;;;;;;;5060462;28;20387;-52
2023/05/02 12:20:11;;;;;;;7.47;2.70;;;;;;;;;;5060680;28;20227;-51
2023/05/02 12:22:37;;;;;;;4.32;2.80;;;;;;;;;;5062499;28;20786;-52
2023/05/02 12:25:04;;;;;;;5.97;3.67;;;;;;;;;;5060714;28;20235;-54
2023/05/02 12:27:32;;;;;;;9.20;3.20;;;;;;;;;;5063188;28;20231;-50
2023/05/02 12:29:58;;;;;;;7.63;3.63;;;;;;;;;;5060849;28;20249;-52
2023/05/02 12:32:30;;;;;;;7.03;3.72;;;;;;;;;;5060487;28;20235;-51
2023/05/02 12:34:57;;;;;;;7.45;3.53;;;;;;;;;;5061779;28;20673;-51
2023/05/02 12:37:24;;;;;;;8.68;2.95;;;;;;;;;;5063381;28;20365;-52
2023/05/02 12:39:51;;;;;;;9.35;3.45;;;;;;;;;;5061678;28;20235;-52
2023/05/02 12:42:19;;;;;;;8.18;3.22;;;;;;;;;;5062801;28;20231;-51
2023/05/02 12:44:46;;;;;;;10.65;4.28;;;;;;;;;;5062379;28;20617;-52
2023/05/02 12:47:13;;;;;;;6.57;4.28;;;;;;;;;;5064888;28;20227;-53
2023/05/02 12:49:50;;;;;;;5.53;4.20;;;;;;;;;;5062451;28;20597;-52
2023/05/02 12:52:16;;;;;;;7.97;3.25;;;;;;;;;;5064703;28;20310;-51
2023/05/02 12:54:43;;;;;;;5.70;3.05;;;;;;;;;;5070917;28;21486;-52
2023/05/02 12:57:10;;;;;;;6.25;3.35;;;;;;;;;;5064908;28;20229;-54
2023/05/02 12:59:36;;;;;;;12.85;3.78;;;;;;;;;;5066414;28;20230;-53
2023/05/02 13:02:03;;;;;;;5.93;3.33;;;;;;;;;;5064525;28;20240;-53
2023/05/02 13:04:36;;;;;;;8.50;3.65;;;;;;;;;;5066578;28;20231;-53
2023/05/02 13:07:04;;;;;;;7.07;3.40;;;;;;;;;;5066083;28;20251;-52
2023/05/02 13:09:30;;;;;;;7.75;3.63;;;;;;;;;;5065889;28;20243;-51
2023/05/02 13:11:57;;;;;;;7.40;3.88;;;;;;;;;;5065175;28;20228;-51
2023/05/02 13:14:24;;;;;;;4.72;3.10;;;;;;;;;;5066323;28;20236;-52
2023/05/02 13:16:52;;;;;;;4.82;3.40;;;;;;;;;;5068516;28;20246;-51
2023/05/02 13:19:18;;;;;;;5.82;3.22;;;;;;;;;;5066061;28;20258;-52
2023/05/02 13:21:45;;;;;;;7.60;2.88;;;;;;;;;;5075325;28;20245;-53
2023/05/02 13:24:13;;;;;;;6.78;3.15;;;;;;;;;;5065852;28;20976;-53
2023/05/02 13:26:40;;;;;;;4.63;3.20;;;;;;;;;;5064209;28;20245;-52
2023/05/02 13:29:08;;;;;;;7.13;3.35;;;;;;;;;;5061159;28;20238;-52
2023/05/02 13:31:34;;;;;;;8.15;3.30;;;;;;;;;;5067637;28;20231;-51
2023/05/02 13:34:01;;;;;;;5.10;2.90;;;;;;;;;;5065668;28;20327;-53
2023/05/02 13:36:27;;;;;;;6.55;3.03;;;;;;;;;;5067825;28;20680;-52
2023/05/02 13:38:54;;;;;;;3.70;2.53;;;;;;;;;;5065284;28;20311;-52
2023/05/02 13:41:23;;;;;;;5.75;3.15;;;;;;;;;;5059449;28;20314;-52
2023/05/02 13:43:49;;;;;;;4.45;3.22;;;;;;;;;;5061468;28;20294;-53
2023/05/02 13:46:16;;;;;;;6.07;2.75;;;;;;;;;;5054254;28;20263;-51
2023/05/02 13:48:42;;;;;;;7.20;3.40;;;;;;;;;;5060096;28;20322;-52
2023/05/02 13:51:09;;;;;;;5.25;2.95;;;;;;;;;;5063675;28;20243;-53
2023/05/02 13:53:35;;;;;;;8.50;4.07;;;;;;;;;;5060260;28;20238;-51
2023/05/02 13:56:02;;;;;;;6.00;3.28;;;;;;;;;;5061082;28;20319;-51
2023/05/02 13:58:29;;;;;;;8.40;3.05;;;;;;;;;;5065154;28;20269;-52
2023/05/02 14:00:56;;;;;;;6.88;3.28;;;;;;;;;;5064020;28;20238;-52
2023/05/02 14:03:23;;;;;;;6.78;2.80;;;;;;;;;;5068722;28;20249;-51
2023/05/02 14:05:49;;;;;;;4.65;3.35;;;;;;;;;;5063840;28;20334;-51
2023/05/02 14:08:17;;;;;;;5.43;2.88;;;;;;;;;;5057641;28;20227;-52
2023/05/02 14:10:44;;;;;;;7.57;3.08;;;;;;;;;;5064843;28;20722;-52
2023/05/02 14:13:10;;;;;;;4.68;2.83;;;;;;;;;;5064641;28;20257;-52
2023/05/02 14:15:38;;;;;;;7.50;3.38;;;;;;;;;;5064833;28;20978;-51
2023/05/02 14:18:05;;;;;;;5.82;3.70;;;;;;;;;;5060261;28;20231;-51
2023/05/02 14:20:31;;;;;;;4.78;3.20;;;;;;;;;;5063418;28;20247;-52
2023/05/02 14:22:57;;;;;;;6.45;3.15;;;;;;;;;;5062877;28;20680;-53
2023/05/02 14:25:24;;;;;;;7.38;2.90;;;;;;;;;;5062503;28;20879;-53
2023/05/02 14:27:51;;;;;;;4.82;2.63;;;;;;;;;;5063817;28;20322;-51
2023/05/02 14:30:17;;;;;;;7.60;3.00;;;;;;;;;;5069173;28;20259;-52
2023/05/02 14:32:45;;;;;;;3.65;3.15;;;;;;;;;;5066575;28;20397;-51
2023/05/02 14:35:12;;;;;;;8.00;3.40;;;;;;;;;;5065509;28;20246;-52
2023/05/02 14:37:38;;;;;;;9.15;3.58;;;;;;;;;;5063961;28;20280;-52
2023/05/02 14:40:05;;;;;;;3.83;2.85;;;;;;;;;;5063068;28;20243;-52
2023/05/02 14:42:32;;;;;;;3.47;3.15;;;;;;;;;;5067277;28;20318;-53
2023/05/02 14:45:01;;;;;;;5.07;3.00;;;;;;;;;;5067220;28;20258;-51
2023/05/02 14:47:29;;;;;;;3.58;2.80;;;;;;;;;;5064232;28;20242;-53